createdAt,value
2018-09-27T00:01:22.107Z,12.08
2018-09-27T00:03:52.117Z,12.04
2018-09-27T00:06:21.977Z,11.86
2018-09-27T00:08:51.758Z,11.94
2018-09-27T00:11:21.667Z,11.95
2018-09-27T00:13:51.790Z,11.98
2018-09-27T00:16:21.671Z,11.94
2018-09-27T00:18:51.551Z,11.98
2018-09-27T00:21:21.637Z,11.85
2018-09-27T00:23:51.425Z,11.95
2018-09-27T00:26:21.353Z,12.03
2018-09-27T00:28:51.271Z,11.97
2018-09-27T00:31:20.874Z,11.91
2018-09-27T00:33:50.976Z,11.87
2018-09-27T00:36:20.524Z,11.78
2018-09-27T00:38:50.205Z,11.82
2018-09-27T00:41:19.938Z,11.84
2018-09-27T00:43:49.922Z,11.78
2018-09-27T00:46:19.454Z,11.72
2018-09-27T00:48:49.446Z,11.71
2018-09-27T00:51:19.467Z,11.69
2018-09-27T00:53:49.368Z,11.68
2018-09-27T00:56:19.026Z,11.75
2018-09-27T00:58:48.701Z,11.74
2018-09-27T01:01:18.870Z,11.76
2018-09-27T01:03:48.902Z,11.71
2018-09-27T01:06:19.005Z,11.56
2018-09-27T01:08:48.579Z,11.56
2018-09-27T01:11:18.141Z,11.50
2018-09-27T01:13:47.831Z,11.55
2018-09-27T01:16:17.231Z,11.48
2018-09-27T01:18:47.096Z,11.41
2018-09-27T01:21:16.784Z,11.37
2018-09-27T01:23:46.209Z,11.41
2018-09-27T01:26:15.540Z,11.36
2018-09-27T01:28:45.373Z,11.38
2018-09-27T01:31:14.789Z,11.43
2018-09-27T01:33:44.336Z,11.40
2018-09-27T01:36:13.879Z,11.37
2018-09-27T01:38:43.417Z,11.44
2018-09-27T01:41:12.771Z,11.39
2018-09-27T01:43:42.236Z,11.32
2018-09-27T01:46:11.615Z,11.34
2018-09-27T01:48:41.058Z,11.26
2018-09-27T01:51:10.357Z,11.22
2018-09-27T01:53:39.796Z,11.23
2018-09-27T01:56:09.138Z,11.18
2018-09-27T01:58:38.483Z,11.15
2018-09-27T02:01:08.853Z,11.14
2018-09-27T02:03:38.179Z,11.09
2018-09-27T02:06:07.588Z,11.04
2018-09-27T02:08:36.905Z,10.97
2018-09-27T02:11:06.337Z,10.99
2018-09-27T02:13:35.738Z,10.98
2018-09-27T02:16:05.092Z,10.90
2018-09-27T02:18:34.404Z,10.91
2018-09-27T02:21:03.701Z,10.86
2018-09-27T02:23:33.048Z,10.82
2018-09-27T02:26:02.344Z,10.76
2018-09-27T02:28:31.673Z,10.76
2018-09-27T02:31:01.219Z,10.75
2018-09-27T02:33:30.550Z,10.76
2018-09-27T02:35:59.941Z,10.76
2018-09-27T02:38:29.219Z,10.76
2018-09-27T02:40:58.730Z,10.74
2018-09-27T02:43:28.078Z,10.72
2018-09-27T02:45:57.491Z,10.64
2018-09-27T02:48:26.836Z,10.64
2018-09-27T02:50:56.322Z,10.67
2018-09-27T02:53:25.724Z,10.63
2018-09-27T02:55:55.210Z,10.58
2018-09-27T02:58:24.590Z,10.51
2018-09-27T03:00:54.097Z,10.55
2018-09-27T03:03:23.665Z,10.60
2018-09-27T03:05:53.223Z,10.56
2018-09-27T03:08:22.833Z,10.58
2018-09-27T03:10:52.345Z,10.54
2018-09-27T03:13:21.876Z,10.48
2018-09-27T03:15:51.921Z,10.42
2018-09-27T03:18:21.872Z,10.45
2018-09-27T03:20:51.515Z,10.48
2018-09-27T03:23:21.054Z,10.58
2018-09-27T03:25:50.629Z,10.65
2018-09-27T03:28:20.052Z,10.63
2018-09-27T03:30:50.019Z,10.65
2018-09-27T03:33:19.619Z,10.67
2018-09-27T03:35:49.076Z,10.65
2018-09-27T03:38:18.707Z,10.65
2018-09-27T03:40:48.258Z,10.67
2018-09-27T03:43:17.658Z,10.61
2018-09-27T03:45:47.163Z,10.62
2018-09-27T03:48:17.106Z,10.55
2018-09-27T03:50:46.668Z,10.58
2018-09-27T03:53:17.255Z,10.64
2018-09-27T03:55:46.715Z,10.60
2018-09-27T03:58:16.107Z,10.60
2018-09-27T04:00:46.067Z,10.48
2018-09-27T04:03:15.854Z,10.47
2018-09-27T04:05:45.719Z,10.49
2018-09-27T04:08:15.446Z,10.50
2018-09-27T04:10:45.335Z,10.46
2018-09-27T04:13:15.083Z,10.38
2018-09-27T04:15:44.819Z,10.34
2018-09-27T04:18:14.636Z,10.33
2018-09-27T04:20:50.105Z,10.27
2018-09-27T04:23:20.915Z,10.26
2018-09-27T04:25:51.176Z,10.29
2018-09-27T04:28:21.406Z,10.28
2018-09-27T04:30:51.146Z,10.35
2018-09-27T04:33:20.577Z,10.42
2018-09-27T04:35:50.074Z,10.46
2018-09-27T04:38:19.555Z,10.54
2018-09-27T04:40:49.137Z,10.41
2018-09-27T04:43:19.240Z,10.42
2018-09-27T04:45:48.977Z,10.41
2018-09-27T04:48:18.691Z,10.48
2018-09-27T04:50:48.809Z,10.42
2018-09-27T04:53:18.677Z,10.47
2018-09-27T04:55:48.926Z,10.53
2018-09-27T04:58:18.609Z,10.54
2018-09-27T05:00:48.682Z,10.47
2018-09-27T05:03:18.249Z,10.57
2018-09-27T05:05:47.887Z,10.59
2018-09-27T05:08:17.505Z,10.63
2018-09-27T05:10:47.569Z,10.62
2018-09-27T05:13:17.143Z,10.53
2018-09-27T05:15:46.993Z,10.51
2018-09-27T05:18:16.940Z,10.40
2018-09-27T05:20:46.979Z,10.44
2018-09-27T05:23:17.103Z,10.50
2018-09-27T05:25:47.043Z,10.50
2018-09-27T05:28:17.037Z,10.51
2018-09-27T05:30:46.949Z,10.50
2018-09-27T05:33:16.998Z,10.48
2018-09-27T05:35:57.640Z,10.49
2018-09-27T05:38:27.325Z,10.43
2018-09-27T05:40:56.700Z,10.37
2018-09-27T05:43:26.094Z,10.48
2018-09-27T05:45:55.560Z,10.45
2018-09-27T05:48:25.149Z,10.49
2018-09-27T05:50:54.701Z,10.53
2018-09-27T05:53:24.673Z,10.57
2018-09-27T05:55:54.089Z,10.59
2018-09-27T05:58:23.750Z,10.63
2018-09-27T06:00:53.095Z,10.64
2018-09-27T06:03:22.511Z,10.71
2018-09-27T06:05:51.953Z,10.80
2018-09-27T06:08:21.853Z,10.83
2018-09-27T06:10:51.450Z,10.86
2018-09-27T06:13:20.876Z,10.96
2018-09-27T06:15:50.489Z,10.98
2018-09-27T06:18:19.886Z,11.05
2018-09-27T06:20:49.485Z,11.12
2018-09-27T06:23:18.931Z,11.24
2018-09-27T06:25:48.433Z,11.29
2018-09-27T06:28:17.809Z,11.33
2018-09-27T06:30:47.312Z,11.34
2018-09-27T06:33:17.029Z,11.44
2018-09-27T06:35:46.451Z,11.46
2018-09-27T06:38:15.925Z,11.53
2018-09-27T06:40:45.632Z,11.56
2018-09-27T06:43:15.178Z,11.64
2018-09-27T06:45:44.787Z,11.75
2018-09-27T06:48:14.464Z,11.81
2018-09-27T06:50:44.220Z,11.86
2018-09-27T06:53:13.837Z,11.94
2018-09-27T06:55:43.984Z,12.01
2018-09-27T06:58:13.690Z,12.12
2018-09-27T07:00:43.590Z,12.15
2018-09-27T07:03:13.548Z,12.23
2018-09-27T07:05:43.405Z,12.28
2018-09-27T07:08:13.204Z,12.42
2018-09-27T07:10:43.327Z,12.61
2018-09-27T07:13:13.184Z,12.98
2018-09-27T07:15:43.330Z,13.46
2018-09-27T07:18:13.209Z,13.98
2018-09-27T07:20:43.107Z,14.54
2018-09-27T07:23:13.061Z,15.06
2018-09-27T07:25:43.247Z,15.40
2018-09-27T07:28:13.200Z,15.97
2018-09-27T07:30:43.243Z,16.53
2018-09-27T07:33:13.566Z,16.68
2018-09-27T07:35:43.611Z,16.95
2018-09-27T07:38:13.619Z,17.18
2018-09-27T07:40:43.498Z,17.20
2018-09-27T07:43:13.608Z,17.37
2018-09-27T07:45:43.602Z,17.68
2018-09-27T07:48:13.375Z,17.82
2018-09-27T07:50:43.335Z,17.93
2018-09-27T07:53:13.385Z,18.20
2018-09-27T07:55:43.386Z,18.33
2018-09-27T07:58:13.209Z,18.53
2018-09-27T08:00:43.299Z,18.67
2018-09-27T08:03:13.254Z,19.10
2018-09-27T08:05:43.396Z,19.03
2018-09-27T08:08:13.338Z,19.32
2018-09-27T08:10:43.749Z,19.50
2018-09-27T08:13:13.624Z,19.79
2018-09-27T08:15:43.376Z,20.05
2018-09-27T08:18:13.021Z,20.19
2018-09-27T08:20:42.940Z,20.35
2018-09-27T08:23:13.037Z,20.43
2018-09-27T08:25:43.408Z,20.65
2018-09-27T08:28:13.366Z,20.70
2018-09-27T08:30:43.568Z,20.92
2018-09-27T08:33:13.591Z,20.92
2018-09-27T08:35:43.649Z,21.20
2018-09-27T08:38:13.746Z,21.13
2018-09-27T08:40:43.403Z,21.44
2018-09-27T08:43:13.197Z,21.54
2018-09-27T08:45:43.166Z,21.46
2018-09-27T08:48:13.119Z,21.72
2018-09-27T08:50:43.171Z,21.79
2018-09-27T08:53:13.352Z,22.06
2018-09-27T08:55:43.396Z,22.27
2018-09-27T08:58:13.136Z,22.17
2018-09-27T09:00:43.140Z,22.48
2018-09-27T09:03:13.293Z,22.60
2018-09-27T09:05:43.044Z,22.49
2018-09-27T09:08:13.395Z,22.62
2018-09-27T09:10:43.276Z,22.81
2018-09-27T09:13:12.954Z,23.09
2018-09-27T09:15:42.855Z,23.22
2018-09-27T09:18:12.731Z,23.24
2018-09-27T09:20:42.233Z,23.48
2018-09-27T09:23:12.437Z,23.70
2018-09-27T09:25:42.339Z,23.87
2018-09-27T09:28:12.438Z,23.61
2018-09-27T09:30:42.176Z,23.68
2018-09-27T09:33:12.075Z,23.81
2018-09-27T09:35:42.445Z,23.89
2018-09-27T09:38:12.308Z,23.66
2018-09-27T09:40:42.338Z,23.80
2018-09-27T09:43:12.001Z,23.97
2018-09-27T09:45:42.072Z,23.82
2018-09-27T09:48:12.766Z,24.20
2018-09-27T09:50:42.645Z,24.22
2018-09-27T09:53:13.048Z,24.12
2018-09-27T09:55:43.030Z,24.24
2018-09-27T09:58:13.058Z,24.44
2018-09-27T10:00:43.268Z,24.47
2018-09-27T10:03:13.188Z,23.85
2018-09-27T10:05:43.456Z,24.25
2018-09-27T10:08:13.455Z,24.54
2018-09-27T10:10:43.536Z,24.62
2018-09-27T10:13:13.757Z,24.57
2018-09-27T10:15:43.897Z,24.50
2018-09-27T10:18:13.615Z,24.62
2018-09-27T10:20:43.599Z,24.60
2018-09-27T10:23:13.593Z,24.74
2018-09-27T10:25:43.634Z,24.70
2018-09-27T10:28:13.343Z,24.76
2018-09-27T10:30:42.915Z,24.63
2018-09-27T10:33:12.797Z,24.61
2018-09-27T10:35:43.565Z,24.75
2018-09-27T10:38:13.176Z,24.66
2018-09-27T10:40:43.208Z,24.61
2018-09-27T10:43:13.079Z,24.61
2018-09-27T10:45:43.295Z,24.47
2018-09-27T10:48:13.293Z,24.64
2018-09-27T10:50:43.104Z,24.56
2018-09-27T10:53:12.616Z,24.72
2018-09-27T10:55:42.610Z,24.80
2018-09-27T10:58:12.494Z,24.80
2018-09-27T11:00:43.497Z,24.93
2018-09-27T11:03:13.279Z,24.98
2018-09-27T11:05:43.061Z,25.06
2018-09-27T11:08:12.992Z,25.12
2018-09-27T11:10:43.119Z,25.03
2018-09-27T11:13:13.029Z,25.12
2018-09-27T11:15:42.940Z,25.20
2018-09-27T11:18:12.868Z,25.15
2018-09-27T11:20:42.761Z,25.30
2018-09-27T11:23:12.485Z,25.37
2018-09-27T11:25:42.584Z,25.37
2018-09-27T11:28:12.512Z,25.61
2018-09-27T11:30:42.447Z,25.36
2018-09-27T11:33:12.558Z,25.36
2018-09-27T11:35:42.755Z,25.25
2018-09-27T11:38:12.636Z,25.36
2018-09-27T11:40:42.315Z,25.42
2018-09-27T11:43:12.310Z,25.24
2018-09-27T11:45:42.122Z,25.29
2018-09-27T11:48:11.849Z,25.25
2018-09-27T11:50:41.754Z,25.14
2018-09-27T11:53:11.842Z,25.15
2018-09-27T11:55:41.877Z,25.22
2018-09-27T11:58:11.714Z,25.34
2018-09-27T12:00:41.492Z,25.37
2018-09-27T12:03:11.633Z,25.38
2018-09-27T12:05:41.561Z,25.33
2018-09-27T12:08:11.785Z,25.35
2018-09-27T12:10:42.193Z,25.06
2018-09-27T12:13:12.254Z,25.09
2018-09-27T12:15:42.243Z,24.97
2018-09-27T12:18:12.251Z,25.03
2018-09-27T12:20:42.224Z,25.17
2018-09-27T12:23:12.072Z,25.23
2018-09-27T12:25:42.073Z,25.26
2018-09-27T12:28:12.213Z,25.33
2018-09-27T12:30:42.501Z,25.37
2018-09-27T12:33:12.709Z,25.49
2018-09-27T12:35:42.846Z,25.46
2018-09-27T12:38:12.912Z,25.53
2018-09-27T12:40:42.947Z,25.46
2018-09-27T12:43:12.995Z,25.43
2018-09-27T12:45:42.735Z,25.31
2018-09-27T12:48:12.812Z,25.36
2018-09-27T12:50:43.052Z,25.40
2018-09-27T12:53:13.000Z,25.66
2018-09-27T12:55:42.834Z,25.71
2018-09-27T12:58:12.772Z,25.57
2018-09-27T13:00:42.857Z,25.56
2018-09-27T13:03:12.944Z,25.38
2018-09-27T13:05:42.917Z,25.18
2018-09-27T13:08:12.854Z,25.33
2018-09-27T13:10:42.818Z,25.39
2018-09-27T13:13:12.756Z,25.46
2018-09-27T13:15:42.925Z,25.48
2018-09-27T13:18:12.713Z,25.47
2018-09-27T13:20:43.310Z,25.42
2018-09-27T13:23:13.138Z,25.50
2018-09-27T13:25:43.502Z,25.52
2018-09-27T13:28:13.474Z,25.53
2018-09-27T13:30:43.432Z,25.58
2018-09-27T13:33:13.523Z,25.51
2018-09-27T13:35:43.428Z,25.48
2018-09-27T13:38:13.331Z,25.54
2018-09-27T13:40:43.084Z,25.52
2018-09-27T13:43:12.937Z,25.44
2018-09-27T13:45:43.278Z,25.44
2018-09-27T13:48:13.122Z,25.46
2018-09-27T13:50:43.059Z,25.40
2018-09-27T13:53:12.914Z,25.42
2018-09-27T13:55:42.965Z,25.52
2018-09-27T13:58:12.732Z,25.35
2018-09-27T14:00:42.724Z,25.31
2018-09-27T14:03:12.542Z,25.23
2018-09-27T14:05:42.325Z,25.32
2018-09-27T14:08:12.322Z,25.39
2018-09-27T14:10:42.120Z,25.36
2018-09-27T14:13:12.130Z,25.36
2018-09-27T14:15:42.761Z,25.29
2018-09-27T14:18:12.506Z,25.24
2018-09-27T14:20:42.262Z,25.27
2018-09-27T14:23:12.201Z,25.27
2018-09-27T14:25:41.985Z,25.26
2018-09-27T14:28:12.090Z,25.15
2018-09-27T14:30:42.349Z,25.11
2018-09-27T14:33:12.351Z,25.23
2018-09-27T14:35:42.076Z,25.15
2018-09-27T14:38:14.972Z,25.05
2018-09-27T14:40:44.724Z,25.05
2018-09-27T14:43:14.301Z,24.91
2018-09-27T14:45:43.926Z,24.95
2018-09-27T14:48:13.363Z,24.88
2018-09-27T14:50:43.240Z,24.76
2018-09-27T14:53:13.157Z,24.78
2018-09-27T14:55:43.078Z,24.59
2018-09-27T14:58:13.063Z,24.54
2018-09-27T15:00:43.091Z,24.53
2018-09-27T15:03:12.909Z,24.42
2018-09-27T15:05:43.024Z,24.21
2018-09-27T15:08:13.112Z,24.02
2018-09-27T15:10:43.735Z,23.83
2018-09-27T15:13:13.542Z,23.55
2018-09-27T15:15:43.671Z,23.35
2018-09-27T15:18:13.647Z,23.09
2018-09-27T15:20:43.602Z,22.98
2018-09-27T15:23:13.388Z,22.85
2018-09-27T15:25:43.405Z,22.61
2018-09-27T15:28:13.482Z,22.49
2018-09-27T15:30:43.264Z,22.33
2018-09-27T15:33:13.257Z,22.24
2018-09-27T15:35:42.997Z,22.12
2018-09-27T15:38:13.361Z,22.04
2018-09-27T15:40:43.090Z,21.97
2018-09-27T15:43:13.505Z,21.80
2018-09-27T15:45:43.343Z,21.70
2018-09-27T15:48:13.104Z,21.60
2018-09-27T15:50:43.265Z,21.57
2018-09-27T15:53:13.263Z,21.50
2018-09-27T15:55:43.167Z,21.43
2018-09-27T15:58:13.101Z,21.34
2018-09-27T16:00:43.074Z,21.24
2018-09-27T16:03:13.144Z,21.18
2018-09-27T16:05:42.811Z,21.16
2018-09-27T16:08:12.732Z,21.20
2018-09-27T16:10:42.648Z,21.05
2018-09-27T16:13:12.588Z,20.96
2018-09-27T16:15:42.912Z,20.82
2018-09-27T16:18:12.950Z,20.74
2018-09-27T16:20:42.948Z,20.62
2018-09-27T16:23:13.060Z,20.59
2018-09-27T16:25:43.136Z,20.53
2018-09-27T16:28:13.229Z,20.45
2018-09-27T16:30:43.390Z,20.40
2018-09-27T16:33:13.467Z,20.33
2018-09-27T16:35:43.571Z,20.23
2018-09-27T16:38:13.582Z,20.16
2018-09-27T16:40:43.408Z,20.03
2018-09-27T16:43:13.224Z,19.96
2018-09-27T16:45:43.427Z,19.96
2018-09-27T16:48:13.129Z,19.83
2018-09-27T16:50:42.968Z,19.81
2018-09-27T16:53:13.073Z,19.70
2018-09-27T16:55:42.741Z,19.56
2018-09-27T16:58:12.541Z,19.52
2018-09-27T17:00:42.435Z,19.44
2018-09-27T17:03:12.298Z,19.36
2018-09-27T17:05:42.160Z,19.20
2018-09-27T17:08:12.302Z,19.12
2018-09-27T17:10:42.257Z,19.06
2018-09-27T17:13:12.279Z,19.00
2018-09-27T17:15:42.504Z,18.95
2018-09-27T17:18:12.440Z,18.91
2018-09-27T17:20:42.820Z,18.85
2018-09-27T17:23:12.829Z,18.80
2018-09-27T17:25:42.737Z,18.77
2018-09-27T17:28:12.636Z,18.71
2018-09-27T17:30:42.794Z,18.66
2018-09-27T17:33:12.993Z,18.62
2018-09-27T17:35:42.932Z,18.56
2018-09-27T17:38:12.734Z,18.45
2018-09-27T17:40:43.031Z,18.40
2018-09-27T17:43:13.221Z,18.35
2018-09-27T17:45:42.977Z,18.30
2018-09-27T17:48:13.012Z,18.21
2018-09-27T17:50:43.097Z,18.18
2018-09-27T17:53:12.979Z,18.15
2018-09-27T17:55:43.072Z,18.13
2018-09-27T17:58:12.959Z,18.04
2018-09-27T18:00:42.862Z,18.01
2018-09-27T18:03:12.901Z,17.99
2018-09-27T18:05:43.439Z,17.93
2018-09-27T18:08:13.213Z,17.82
2018-09-27T18:10:43.315Z,17.75
2018-09-27T18:13:13.146Z,17.76
2018-09-27T18:15:43.226Z,17.65
2018-09-27T18:18:12.700Z,17.59
2018-09-27T18:20:42.409Z,17.58
2018-09-27T18:23:12.368Z,17.55
2018-09-27T18:25:42.422Z,17.46
2018-09-27T18:28:12.562Z,17.42
2018-09-27T18:30:42.160Z,17.33
2018-09-27T18:33:12.195Z,17.27
2018-09-27T18:35:41.974Z,17.22
2018-09-27T18:38:12.004Z,17.20
2018-09-27T18:40:41.632Z,17.10
2018-09-27T18:43:11.624Z,17.11
2018-09-27T18:45:41.574Z,17.25
2018-09-27T18:48:11.450Z,17.24
2018-09-27T18:50:41.524Z,17.10
2018-09-27T18:53:11.699Z,17.08
2018-09-27T18:55:42.198Z,17.08
2018-09-27T18:58:12.171Z,17.04
2018-09-27T19:00:41.961Z,17.08
2018-09-27T19:03:12.163Z,17.05
2018-09-27T19:05:42.591Z,17.01
2018-09-27T19:08:12.621Z,17.08
2018-09-27T19:10:42.678Z,17.08
2018-09-27T19:13:12.653Z,17.04
2018-09-27T19:15:42.575Z,16.95
2018-09-27T19:18:12.627Z,16.85
2018-09-27T19:20:42.661Z,16.74
2018-09-27T19:23:12.620Z,16.68
2018-09-27T19:25:42.568Z,16.69
2018-09-27T19:28:12.572Z,16.56
2018-09-27T19:30:42.578Z,16.52
2018-09-27T19:33:12.626Z,16.52
2018-09-27T19:35:42.309Z,16.46
2018-09-27T19:38:12.302Z,16.35
2018-09-27T19:40:42.203Z,16.36
2018-09-27T19:43:12.567Z,16.30
2018-09-27T19:45:42.476Z,16.29
2018-09-27T19:48:12.734Z,16.20
2018-09-27T19:50:42.720Z,16.16
2018-09-27T19:53:12.658Z,16.13
2018-09-27T19:55:42.803Z,16.06
2018-09-27T19:58:12.952Z,16.00
2018-09-27T20:00:43.020Z,15.94
2018-09-27T20:03:13.156Z,15.90
2018-09-27T20:05:42.820Z,15.90
2018-09-27T20:08:13.035Z,15.90
2018-09-27T20:10:43.144Z,15.87
2018-09-27T20:13:13.263Z,15.85
2018-09-27T20:15:43.060Z,15.82
2018-09-27T20:18:12.614Z,15.80
2018-09-27T20:20:42.150Z,15.74
2018-09-27T20:23:11.754Z,15.72
2018-09-27T20:25:41.180Z,15.64
2018-09-27T20:28:11.185Z,15.63
2018-09-27T20:30:41.049Z,15.67
2018-09-27T20:33:10.962Z,15.62
2018-09-27T20:35:40.788Z,15.65
2018-09-27T20:38:10.412Z,15.60
2018-09-27T20:40:40.343Z,15.59
2018-09-27T20:43:09.813Z,15.53
2018-09-27T20:45:39.497Z,15.49
2018-09-27T20:48:09.297Z,15.45
2018-09-27T20:50:38.730Z,15.42
2018-09-27T20:53:08.226Z,15.45
2018-09-27T20:55:37.857Z,15.36
2018-09-27T20:58:07.510Z,15.37
2018-09-27T21:00:37.052Z,15.32
2018-09-27T21:03:06.445Z,15.34
2018-09-27T21:05:36.001Z,15.25
2018-09-27T21:08:05.471Z,15.22
2018-09-27T21:10:34.899Z,15.18
2018-09-27T21:13:04.308Z,15.16
2018-09-27T21:15:33.646Z,15.15
2018-09-27T21:18:02.979Z,15.09
2018-09-27T21:20:32.375Z,14.98
2018-09-27T21:23:01.704Z,14.92
2018-09-27T21:25:31.228Z,14.84
2018-09-27T21:28:00.647Z,14.79
2018-09-27T21:30:29.919Z,14.80
2018-09-27T21:32:59.351Z,14.75
2018-09-27T21:35:28.725Z,14.73
2018-09-27T21:37:58.078Z,14.70
2018-09-27T21:40:27.465Z,14.63
2018-09-27T21:42:56.797Z,14.62
2018-09-27T21:45:26.224Z,14.80
2018-09-27T21:47:55.660Z,14.76
2018-09-27T21:50:25.200Z,14.75
2018-09-27T21:52:54.487Z,14.81
2018-09-27T21:55:23.981Z,14.85
2018-09-27T21:57:53.444Z,14.80
2018-09-27T22:00:22.796Z,14.67
2018-09-27T22:02:52.315Z,14.60
2018-09-27T22:05:21.862Z,14.63
2018-09-27T22:07:51.302Z,14.58
2018-09-27T22:10:20.806Z,14.54
2018-09-27T22:12:50.277Z,14.56
2018-09-27T22:15:19.985Z,14.59
2018-09-27T22:17:49.583Z,14.63
2018-09-27T22:20:19.165Z,14.52
2018-09-27T22:22:48.777Z,14.47
2018-09-27T22:25:18.587Z,14.46
2018-09-27T22:27:48.311Z,14.43
2018-09-27T22:30:17.951Z,14.34
2018-09-27T22:32:47.772Z,14.33
2018-09-27T22:35:17.896Z,14.32
2018-09-27T22:37:47.752Z,14.24
2018-09-27T22:40:17.661Z,14.23
2018-09-27T22:42:47.627Z,14.18
2018-09-27T22:45:17.458Z,14.18
2018-09-27T22:47:47.373Z,14.19
2018-09-27T22:50:17.098Z,14.18
2018-09-27T22:52:46.497Z,14.17
2018-09-27T22:55:15.843Z,14.18
2018-09-27T22:57:45.282Z,14.19
2018-09-27T23:00:14.798Z,14.21
2018-09-27T23:02:44.291Z,14.20
2018-09-27T23:05:13.782Z,14.20
2018-09-27T23:07:43.216Z,14.11
2018-09-27T23:10:12.582Z,14.13
2018-09-27T23:12:41.919Z,14.11
2018-09-27T23:15:11.342Z,14.08
2018-09-27T23:17:40.744Z,14.02
2018-09-27T23:20:11.058Z,14.07
2018-09-27T23:22:40.513Z,14.04
2018-09-27T23:25:10.095Z,14.01
2018-09-27T23:27:39.536Z,13.98
2018-09-27T23:30:08.969Z,14.09
2018-09-27T23:32:38.305Z,14.01
2018-09-27T23:35:07.839Z,14.04
2018-09-27T23:37:37.255Z,14.07
2018-09-27T23:40:06.722Z,14.04
2018-09-27T23:42:36.222Z,13.99
2018-09-27T23:45:05.624Z,13.98
2018-09-27T23:47:34.971Z,14.03
2018-09-27T23:50:04.329Z,13.96
2018-09-27T23:52:33.684Z,13.92
2018-09-27T23:55:02.999Z,13.91
2018-09-27T23:57:32.408Z,13.84
